Time;durP1;ratioP1;P1;durP2;ratioP2;P2;SDS_P1;SDS_P2;PMS_P1;PMS_P2;Temp;Humidity;BMP_temperature;BMP_pressure;BME280_temperature;BME280_humidity;BME280_pressure;Samples;Min_cycle;Max_cycle;Signal;HPM_P1;HPM_P2
2022/09/25 00:00:07;;;;;;;4.97;1.52;;;;;;;;;;5116834;28;20050;-74
2022/09/25 00:02:37;;;;;;;10.13;2.25;;;;;;;;;;5116174;28;20047;-76
2022/09/25 00:05:08;;;;;;;6.13;1.95;;;;;;;;;;5111489;28;20039;-73
2022/09/25 00:07:38;;;;;;;6.25;1.33;;;;;;;;;;5113370;28;20044;-74
2022/09/25 00:10:08;;;;;;;8.63;1.52;;;;;;;;;;5117158;27;20575;-73
2022/09/25 00:12:38;;;;;;;6.63;2.05;;;;;;;;;;5118705;27;20051;-72
2022/09/25 00:15:09;;;;;;;5.80;1.23;;;;;;;;;;5126783;27;20058;-75
2022/09/25 00:17:39;;;;;;;5.10;1.40;;;;;;;;;;5130156;27;20036;-75
2022/09/25 00:20:09;;;;;;;;;;;;;;;;;;5130608;27;20049;-77
2022/09/25 00:22:38;;;;;;;8.30;1.30;;;;;;;;;;5130548;27;19926;-75
2022/09/25 00:25:14;;;;;;;;;;;;;;;;;;5129005;27;20047;-76
2022/09/25 00:27:44;;;;;;;4.30;1.45;;;;;;;;;;5130080;27;19930;-75
2022/09/25 00:30:14;;;;;;;11.65;2.40;;;;;;;;;;5129906;27;20497;-73
2022/09/25 00:32:43;;;;;;;;;;;;;;;;;;5130467;27;20421;-76
2022/09/25 00:35:13;;;;;;;2.95;0.93;;;;;;;;;;5128759;27;19927;-78
2022/09/25 00:37:42;;;;;;;;;;;;;;;;;;5131074;27;20051;-71
2022/09/25 00:40:13;;;;;;;7.97;1.70;;;;;;;;;;5128490;27;19927;-75
2022/09/25 00:42:43;;;;;;;4.82;1.52;;;;;;;;;;5130482;27;20043;-74
2022/09/25 00:45:15;;;;;;;;;;;;;;;;;;5130274;27;20231;-74
2022/09/25 00:47:54;;;;;;;4.38;0.95;;;;;;;;;;5129622;27;19924;-76
2022/09/25 00:50:30;;;;;;;3.60;1.20;;;;;;;;;;5127938;27;20790;-75
2022/09/25 00:53:26;;;;;;;1.48;0.77;;;;;;;;;;5127436;27;20054;-76
2022/09/25 00:55:57;;;;;;;12.80;2.20;;;;;;;;;;5123617;27;20043;-73
2022/09/25 00:58:31;;;;;;;3.72;0.80;;;;;;;;;;5115531;27;20596;-75
2022/09/25 01:01:01;;;;;;;11.25;1.10;;;;;;;;;;5117520;27;21202;-74
2022/09/25 01:03:32;;;;;;;2.72;1.00;;;;;;;;;;5118094;27;20469;-74
2022/09/25 01:06:02;;;;;;;5.20;1.25;;;;;;;;;;5119512;27;20043;-72
2022/09/25 01:08:33;;;;;;;7.68;1.50;;;;;;;;;;5118223;27;20047;-75
2022/09/25 01:11:03;;;;;;;7.68;1.20;;;;;;;;;;5118420;27;20047;-74
2022/09/25 01:13:33;;;;;;;13.63;3.55;;;;;;;;;;5118187;27;20039;-77
2022/09/25 01:16:20;;;;;;;8.65;1.00;;;;;;;;;;5118741;27;20054;-77
2022/09/25 01:19:25;;;;;;;3.47;0.98;;;;;;;;;;5116574;27;20078;-76
2022/09/25 01:22:04;;;;;;;4.60;0.90;;;;;;;;;;5116192;27;20048;-75
2022/09/25 01:24:41;;;;;;;3.00;0.90;;;;;;;;;;5117081;27;20046;-74
2022/09/25 01:27:19;;;;;;;4.05;1.15;;;;;;;;;;5116477;27;20048;-72
2022/09/25 01:30:04;;;;;;;4.93;1.75;;;;;;;;;;5115751;27;20051;-72
2022/09/25 01:33:10;;;;;;;9.52;1.20;;;;;;;;;;5117175;27;20043;-74
2022/09/25 01:35:50;;;;;;;1.92;0.90;;;;;;;;;;5118591;27;20046;-73
2022/09/25 01:38:26;;;;;;;8.95;1.27;;;;;;;;;;5118834;27;20046;-75
2022/09/25 01:41:16;;;;;;;;;;;;;;;;;;5119427;27;20047;-73
2022/09/25 01:44:22;;;;;;;4.03;1.10;;;;;;;;;;5113747;27;19923;-77
2022/09/25 01:46:55;;;;;;;6.38;1.45;;;;;;;;;;5116184;27;20072;-74
2022/09/25 01:49:34;;;;;;;7.70;1.70;;;;;;;;;;5113694;27;20051;-70
2022/09/25 01:52:11;;;;;;;7.65;1.60;;;;;;;;;;5114427;27;20043;-73
2022/09/25 01:54:45;;;;;;;9.48;1.20;;;;;;;;;;5116577;27;20043;-74
2022/09/25 01:57:21;;;;;;;4.15;1.10;;;;;;;;;;5116339;27;20039;-73
2022/09/25 02:00:16;;;;;;;2.83;0.90;;;;;;;;;;5115193;27;20043;-76
2022/09/25 02:02:54;;;;;;;6.18;1.10;;;;;;;;;;5114117;27;20051;-72
2022/09/25 02:05:27;;;;;;;3.90;1.10;;;;;;;;;;5113355;27;20040;-75
2022/09/25 02:08:07;;;;;;;6.95;1.73;;;;;;;;;;5117028;27;20541;-74
2022/09/25 02:10:43;;;;;;;8.23;1.70;;;;;;;;;;5116704;27;20394;-73
2022/09/25 02:13:16;;;;;;;2.72;1.10;;;;;;;;;;5114728;27;20044;-77
2022/09/25 02:15:58;;;;;;;1.52;0.85;;;;;;;;;;5112604;27;20047;-74
2022/09/25 02:21:36;;;;;;;7.30;1.70;;;;;;;;;;5117051;27;20047;-72
2022/09/25 02:24:32;;;;;;;3.08;1.00;;;;;;;;;;5113742;27;20044;-72
2022/09/25 02:27:02;;;;;;;5.50;1.02;;;;;;;;;;5115711;27;20046;-75
2022/09/25 02:29:32;;;;;;;2.90;1.08;;;;;;;;;;5117129;27;20035;-74
2022/09/25 02:32:17;;;;;;;6.63;1.33;;;;;;;;;;5115159;27;20036;-72
2022/09/25 02:34:48;;;;;;;1.85;1.08;;;;;;;;;;5116988;27;20834;-76
2022/09/25 02:37:18;;;;;;;5.15;1.15;;;;;;;;;;5127976;27;20042;-73
2022/09/25 02:39:49;;;;;;;;;;;;;;;;;;5127432;27;20073;-73
2022/09/25 02:42:37;;;;;;;5.38;1.27;;;;;;;;;;5126141;27;20321;-72
2022/09/25 02:45:28;;;;;;;4.35;1.05;;;;;;;;;;5127368;27;20054;-71
2022/09/25 02:48:27;;;;;;;5.70;0.93;;;;;;;;;;5127003;27;20062;-77
2022/09/25 02:51:26;;;;;;;5.13;0.90;;;;;;;;;;5127393;27;20051;-74
2022/09/25 02:54:11;;;;;;;3.00;0.80;;;;;;;;;;5126883;27;20047;-76
2022/09/25 02:56:59;;;;;;;3.70;1.20;;;;;;;;;;5127385;27;20039;-76
2022/09/25 02:59:55;;;;;;;1.83;0.95;;;;;;;;;;5132026;27;20058;-71
2022/09/25 03:02:28;;;;;;;5.10;1.20;;;;;;;;;;5137505;27;20051;-72
2022/09/25 03:04:59;;;;;;;4.75;1.20;;;;;;;;;;5129887;27;20046;-76
2022/09/25 03:08:36;;;;;;;5.85;1.25;;;;;;;;;;5127656;27;20039;-77
2022/09/25 03:10:19;;;;;;;3.50;1.30;;;;;;;;;;5127035;27;20413;-78
2022/09/25 03:12:49;;;;;;;4.30;1.30;;;;;;;;;;5128132;28;20043;-73
2022/09/25 03:15:22;;;;;;;4.40;1.13;;;;;;;;;;5127662;28;20051;-73
2022/09/25 03:17:52;;;;;;;2.03;0.80;;;;;;;;;;5125550;28;20058;-72
2022/09/25 03:20:22;;;;;;;;;;;;;;;;;;5127354;28;20058;-72
2022/09/25 03:22:51;;;;;;;4.88;1.10;;;;;;;;;;5126675;28;19930;-78
2022/09/25 03:25:21;;;;;;;13.45;1.23;;;;;;;;;;5127254;28;20054;-71
2022/09/25 03:27:53;;;;;;;4.78;0.82;;;;;;;;;;5126166;27;20062;-74
2022/09/25 03:30:23;;;;;;;3.88;0.93;;;;;;;;;;5126815;28;20051;-70
2022/09/25 03:32:53;;;;;;;9.75;1.35;;;;;;;;;;5126635;28;20042;-73
2022/09/25 03:35:22;;;;;;;;;;;;;;;;;;5127930;28;20043;-72
2022/09/25 03:37:52;;;;;;;4.75;1.05;;;;;;;;;;5126870;28;20290;-71
2022/09/25 03:40:22;;;;;;;12.10;1.20;;;;;;;;;;5127123;28;20517;-72
2022/09/25 03:42:52;;;;;;;4.93;1.27;;;;;;;;;;5127027;27;20102;-70
2022/09/25 03:45:22;;;;;;;4.25;1.25;;;;;;;;;;5130223;27;20051;-77
2022/09/25 03:47:52;;;;;;;10.07;1.60;;;;;;;;;;5130781;27;20078;-74
2022/09/25 03:50:22;;;;;;;5.72;1.48;;;;;;;;;;5130761;27;20051;-74
2022/09/25 03:52:53;;;;;;;6.45;1.23;;;;;;;;;;5129025;27;20074;-76
2022/09/25 03:55:24;;;;;;;2.00;1.23;;;;;;;;;;5131043;27;20054;-74
2022/09/25 03:57:55;;;;;;;1.13;0.80;;;;;;;;;;5130636;27;20074;-73
2022/09/25 04:00:24;;;;;;;3.40;1.17;;;;;;;;;;5130649;27;20418;-77
2022/09/25 04:02:54;;;;;;;;;;;;;;;;;;5129695;27;20524;-76
2022/09/25 04:05:24;;;;;;;6.72;1.38;;;;;;;;;;5131090;27;19926;-73
2022/09/25 04:07:53;;;;;;;5.15;0.73;;;;;;;;;;5131213;27;20043;-72
2022/09/25 04:10:23;;;;;;;2.65;0.95;;;;;;;;;;5128246;27;20047;-71
2022/09/25 04:12:54;;;;;;;4.55;0.90;;;;;;;;;;5129479;27;20047;-77
2022/09/25 04:15:24;;;;;;;6.97;0.93;;;;;;;;;;5129852;27;20062;-76
2022/09/25 04:17:54;;;;;;;2.90;1.23;;;;;;;;;;5130254;27;20501;-74
2022/09/25 04:20:23;;;;;;;6.45;1.27;;;;;;;;;;5130298;27;20051;-70
2022/09/25 04:22:54;;;;;;;5.78;1.30;;;;;;;;;;5130351;27;20046;-71
2022/09/25 04:25:24;;;;;;;6.97;0.98;;;;;;;;;;5130058;27;20043;-74
2022/09/25 04:27:55;;;;;;;3.08;0.85;;;;;;;;;;5129533;27;20600;-75
2022/09/25 04:30:27;;;;;;;4.22;1.70;;;;;;;;;;5130189;27;20057;-72
2022/09/25 04:35:46;;;;;;;4.65;0.85;;;;;;;;;;5130050;27;20051;-75
2022/09/25 04:38:16;;;;;;;;;;;;;;;;;;5128626;27;20043;-75
2022/09/25 04:40:45;;;;;;;3.15;1.25;;;;;;;;;;5129854;27;20310;-73
2022/09/25 04:43:15;;;;;;;3.20;1.00;;;;;;;;;;5130376;27;20039;-74
2022/09/25 04:45:46;;;;;;;1.73;0.90;;;;;;;;;;5129960;27;20417;-76
2022/09/25 04:48:17;;;;;;;2.58;0.90;;;;;;;;;;5129540;27;20050;-73
2022/09/25 04:50:50;;;;;;;6.57;1.10;;;;;;;;;;5129366;27;20047;-76
2022/09/25 04:53:20;;;;;;;1.70;1.00;;;;;;;;;;5129039;27;20046;-75
2022/09/25 04:55:50;;;;;;;;;;;;;;;;;;5130289;27;20054;-76
2022/09/25 04:58:20;;;;;;;2.83;0.73;;;;;;;;;;5130034;27;19924;-71
2022/09/25 05:00:50;;;;;;;2.35;0.85;;;;;;;;;;5129990;27;20046;-74
2022/09/25 05:03:19;;;;;;;;;;;;;;;;;;5129962;27;20035;-70
2022/09/25 05:05:49;;;;;;;5.40;1.35;;;;;;;;;;5129934;27;19926;-74
2022/09/25 05:08:19;;;;;;;4.75;1.10;;;;;;;;;;5129718;27;20057;-75
2022/09/25 05:10:48;;;;;;;2.22;0.82;;;;;;;;;;5127880;27;20443;-73
2022/09/25 05:13:18;;;;;;;4.03;1.05;;;;;;;;;;5129225;27;20043;-72
2022/09/25 05:15:48;;;;;;;4.45;0.98;;;;;;;;;;5128832;27;20417;-75
2022/09/25 05:18:19;;;;;;;;;;;;;;;;;;5129546;27;20039;-72
2022/09/25 05:20:49;;;;;;;4.82;0.90;;;;;;;;;;5129423;27;19919;-75
2022/09/25 05:23:19;;;;;;;4.80;1.13;;;;;;;;;;5128737;27;20050;-75
2022/09/25 05:25:54;;;;;;;6.57;0.70;;;;;;;;;;5126954;27;20046;-75
2022/09/25 05:28:24;;;;;;;3.45;1.10;;;;;;;;;;5129363;27;20047;-74
2022/09/25 05:30:54;;;;;;;5.57;0.65;;;;;;;;;;5129202;27;20051;-70
2022/09/25 05:33:24;;;;;;;9.90;1.67;;;;;;;;;;5127798;27;20051;-72
2022/09/25 05:35:54;;;;;;;3.08;0.90;;;;;;;;;;5129264;27;20051;-78
2022/09/25 05:38:23;;;;;;;;;;;;;;;;;;5129249;27;20066;-74
2022/09/25 05:40:54;;;;;;;4.78;1.00;;;;;;;;;;5128739;27;19927;-73
2022/09/25 05:43:24;;;;;;;4.53;1.17;;;;;;;;;;5128713;27;20051;-72
2022/09/25 05:45:55;;;;;;;2.67;0.93;;;;;;;;;;5128561;27;20047;-74
2022/09/25 05:48:25;;;;;;;1.98;0.75;;;;;;;;;;5128324;27;20051;-73
2022/09/25 05:50:55;;;;;;;;;;;;;;;;;;5128374;27;20050;-74
2022/09/25 05:53:26;;;;;;;2.83;1.00;;;;;;;;;;5126412;27;19931;-75
2022/09/25 05:55:59;;;;;;;2.35;0.60;;;;;;;;;;5128904;27;20047;-72
2022/09/25 05:58:32;;;;;;;1.90;0.93;;;;;;;;;;5128570;27;20038;-75
2022/09/25 06:01:06;;;;;;;2.97;0.95;;;;;;;;;;5129060;27;20050;-72
2022/09/25 06:03:36;;;;;;;2.78;0.88;;;;;;;;;;5128447;27;20421;-70
2022/09/25 06:06:05;;;;;;;;;;;;;;;;;;5128539;27;20050;-74
2022/09/25 06:08:35;;;;;;;2.33;0.60;;;;;;;;;;5127883;27;19926;-72
2022/09/25 06:11:07;;;;;;;4.10;0.80;;;;;;;;;;5128260;27;20047;-73
2022/09/25 06:13:37;;;;;;;4.65;1.10;;;;;;;;;;5128013;27;20051;-76
2022/09/25 06:16:18;;;;;;;2.72;0.77;;;;;;;;;;5127699;27;20049;-74
2022/09/25 06:18:48;;;;;;;3.03;0.70;;;;;;;;;;5128016;27;20039;-70
2022/09/25 06:21:17;;;;;;;;;;;;;;;;;;5131333;27;20050;-76
2022/09/25 06:23:47;;;;;;;2.50;0.80;;;;;;;;;;5138904;27;19923;-70
2022/09/25 06:26:17;;;;;;;2.88;0.85;;;;;;;;;;5132369;27;20121;-75
2022/09/25 06:28:46;;;;;;;;;;;;;;;;;;5128058;27;20046;-70
2022/09/25 06:31:16;;;;;;;6.00;1.15;;;;;;;;;;5127929;27;19950;-74
2022/09/25 06:33:50;;;;;;;4.78;1.15;;;;;;;;;;5126092;27;20039;-77
2022/09/25 06:36:21;;;;;;;3.67;1.00;;;;;;;;;;5127704;27;20047;-70
2022/09/25 06:38:55;;;;;;;2.53;0.60;;;;;;;;;;5128206;27;20051;-76
2022/09/25 06:41:25;;;;;;;2.65;0.93;;;;;;;;;;5127556;27;20042;-73
2022/09/25 06:43:54;;;;;;;3.35;0.70;;;;;;;;;;5127294;27;20047;-74
2022/09/25 06:46:24;;;;;;;3.20;0.82;;;;;;;;;;5127249;27;20051;-74
2022/09/25 06:48:58;;;;;;;5.10;0.73;;;;;;;;;;5127191;27;20039;-75
2022/09/25 06:51:34;;;;;;;1.17;0.63;;;;;;;;;;5127403;27;20058;-71
2022/09/25 06:54:04;;;;;;;4.63;0.95;;;;;;;;;;5127883;27;20113;-73
2022/09/25 06:56:34;;;;;;;2.65;0.90;;;;;;;;;;5127711;27;20046;-71
2022/09/25 06:59:04;;;;;;;4.90;0.90;;;;;;;;;;5128399;27;20043;-76
2022/09/25 07:01:34;;;;;;;4.45;1.20;;;;;;;;;;5127558;27;20047;-78
2022/09/25 07:04:04;;;;;;;4.47;0.73;;;;;;;;;;5127127;27;20051;-72
2022/09/25 07:06:36;;;;;;;3.90;0.93;;;;;;;;;;5126997;27;20047;-75
2022/09/25 07:09:06;;;;;;;2.47;1.00;;;;;;;;;;5127604;27;20047;-73
2022/09/25 07:11:36;;;;;;;2.90;0.98;;;;;;;;;;5127404;27;20047;-73
2022/09/25 07:14:05;;;;;;;2.13;1.08;;;;;;;;;;5127545;28;20051;-74
2022/09/25 07:16:35;;;;;;;6.18;1.27;;;;;;;;;;5125598;28;20050;-71
2022/09/25 07:19:06;;;;;;;5.78;1.10;;;;;;;;;;5128629;27;20153;-75
2022/09/25 07:21:35;;;;;;;2.42;1.15;;;;;;;;;;5131342;27;20062;-77
2022/09/25 07:24:05;;;;;;;3.30;1.02;;;;;;;;;;5129292;27;20066;-78
2022/09/25 07:26:35;;;;;;;5.35;0.90;;;;;;;;;;5130015;27;20539;-75
2022/09/25 07:29:11;;;;;;;4.22;1.10;;;;;;;;;;5131567;27;20054;-75
2022/09/25 07:31:42;;;;;;;8.98;1.20;;;;;;;;;;5131664;27;20051;-76
2022/09/25 07:34:14;;;;;;;6.97;1.13;;;;;;;;;;5129705;27;20051;-73
2022/09/25 07:36:44;;;;;;;3.05;0.80;;;;;;;;;;5131472;27;20062;-72
2022/09/25 07:39:13;;;;;;;2.35;0.85;;;;;;;;;;5129164;27;20047;-78
2022/09/25 07:41:46;;;;;;;1.10;0.60;;;;;;;;;;5131310;27;20043;-74
2022/09/25 07:44:16;;;;;;;5.40;1.10;;;;;;;;;;5128730;27;20062;-73
2022/09/25 07:46:57;;;;;;;2.33;1.00;;;;;;;;;;5131057;27;20043;-74
2022/09/25 07:49:27;;;;;;;3.33;0.73;;;;;;;;;;5130761;27;20050;-71
2022/09/25 07:51:58;;;;;;;2.92;0.70;;;;;;;;;;5129245;27;20047;-76
2022/09/25 07:54:28;;;;;;;2.65;0.88;;;;;;;;;;5130997;27;20047;-78
2022/09/25 07:56:58;;;;;;;2.53;0.80;;;;;;;;;;5131275;27;20047;-76
2022/09/25 07:59:27;;;;;;;;;;;;;;;;;;5131545;27;20046;-73
2022/09/25 08:01:57;;;;;;;3.28;0.80;;;;;;;;;;5130899;27;19923;-75
2022/09/25 08:04:27;;;;;;;3.20;1.10;;;;;;;;;;5130301;27;20065;-73
2022/09/25 08:07:00;;;;;;;2.05;1.00;;;;;;;;;;5130249;27;20047;-73
2022/09/25 08:09:31;;;;;;;1.85;0.70;;;;;;;;;;5129030;27;20047;-69
2022/09/25 08:12:01;;;;;;;3.60;0.93;;;;;;;;;;5130605;27;20043;-70
2022/09/25 08:14:32;;;;;;;4.38;1.00;;;;;;;;;;5130494;27;20046;-74
2022/09/25 08:17:02;;;;;;;2.03;0.90;;;;;;;;;;5130015;27;20066;-74
2022/09/25 08:19:32;;;;;;;2.15;0.75;;;;;;;;;;5130641;27;20047;-74
2022/09/25 08:22:03;;;;;;;2.63;1.02;;;;;;;;;;5130690;27;20039;-77
2022/09/25 08:24:32;;;;;;;;;;;;;;;;;;5131246;27;20054;-70
2022/09/25 08:27:02;;;;;;;2.83;0.90;;;;;;;;;;5129180;27;19926;-70
2022/09/25 08:29:31;;;;;;;2.15;1.08;;;;;;;;;;5129151;27;20058;-75
2022/09/25 08:32:01;;;;;;;3.20;0.80;;;;;;;;;;5130105;27;20051;-74
2022/09/25 08:34:31;;;;;;;2.80;0.95;;;;;;;;;;5130119;27;20059;-73
2022/09/25 08:37:10;;;;;;;5.00;1.23;;;;;;;;;;5129854;27;20046;-72
2022/09/25 08:39:39;;;;;;;2.10;0.93;;;;;;;;;;5127826;27;20150;-72
2022/09/25 08:42:19;;;;;;;1.50;0.82;;;;;;;;;;5128112;27;20051;-75
2022/09/25 08:49:00;;;;;;;2.95;1.00;;;;;;;;;;5129747;27;20413;-75
2022/09/25 08:50:41;;;;;;;4.10;1.23;;;;;;;;;;5129252;27;20039;-71
2022/09/25 08:53:16;;;;;;;;;;;;;;;;;;5130766;27;20112;-74
2022/09/25 08:58:41;;;;;;;5.47;1.15;;;;;;;;;;5129420;27;20051;-70
2022/09/25 09:01:19;;;;;;;2.08;0.85;;;;;;;;;;5129275;27;20050;-76
2022/09/25 09:03:52;;;;;;;5.38;1.38;;;;;;;;;;5129075;27;20054;-77
2022/09/25 09:06:26;;;;;;;2.42;1.17;;;;;;;;;;5129190;27;20047;-71
2022/09/25 09:09:06;;;;;;;6.00;1.20;;;;;;;;;;5128992;27;20050;-74
2022/09/25 09:11:41;;;;;;;3.53;1.23;;;;;;;;;;5129565;27;20035;-72
2022/09/25 09:14:16;;;;;;;4.80;1.50;;;;;;;;;;5129582;27;20414;-73
2022/09/25 09:16:51;;;;;;;3.95;1.40;;;;;;;;;;5129291;27;20047;-73
2022/09/25 09:19:21;;;;;;;5.30;1.30;;;;;;;;;;5129424;27;20043;-76
2022/09/25 09:22:09;;;;;;;5.75;1.40;;;;;;;;;;5129321;27;20043;-76
2022/09/25 09:24:54;;;;;;;4.15;1.15;;;;;;;;;;5129404;27;20047;-71
2022/09/25 09:38:35;;;;;;;4.30;1.08;;;;;;;;;;5124298;27;20211;-71
2022/09/25 09:41:17;;;;;;;3.28;0.95;;;;;;;;;;5104553;28;20070;-72
2022/09/25 09:44:24;;;;;;;2.53;0.90;;;;;;;;;;5085614;28;20044;-73
2022/09/25 09:47:12;;;;;;;3.10;0.90;;;;;;;;;;5103733;28;20064;-74
2022/09/25 09:49:51;;;;;;;4.93;1.05;;;;;;;;;;5104487;28;20040;-69
2022/09/25 09:52:43;;;;;;;2.85;0.98;;;;;;;;;;5103502;28;20047;-69
2022/09/25 09:55:22;;;;;;;2.95;1.10;;;;;;;;;;5085460;28;20063;-72
2022/09/25 09:57:55;;;;;;;4.75;1.10;;;;;;;;;;5103114;28;20458;-75
2022/09/25 10:00:26;;;;;;;4.25;1.00;;;;;;;;;;5102727;28;20043;-70
2022/09/25 10:03:16;;;;;;;3.60;0.90;;;;;;;;;;5103581;28;20494;-71
2022/09/25 10:05:48;;;;;;;6.05;1.17;;;;;;;;;;5103392;28;20035;-76
2022/09/25 10:08:18;;;;;;;2.65;0.98;;;;;;;;;;5103245;28;20054;-74
2022/09/25 10:10:53;;;;;;;2.72;0.88;;;;;;;;;;5102968;28;20059;-73
2022/09/25 10:13:33;;;;;;;2.00;0.90;;;;;;;;;;5103086;28;20047;-74
2022/09/25 10:16:12;;;;;;;3.78;1.10;;;;;;;;;;5103790;28;20850;-71
2022/09/25 10:18:47;;;;;;;3.58;1.10;;;;;;;;;;5103008;28;20058;-77
2022/09/25 10:21:20;;;;;;;5.05;1.40;;;;;;;;;;5103232;28;20062;-75
2022/09/25 10:23:52;;;;;;;5.43;1.35;;;;;;;;;;5102946;28;20047;-72
2022/09/25 10:26:32;;;;;;;7.72;1.30;;;;;;;;;;5097960;28;20045;-74
2022/09/25 10:29:24;;;;;;;4.10;1.67;;;;;;;;;;5082584;28;20048;-71
2022/09/25 10:32:04;;;;;;;8.70;1.35;;;;;;;;;;5064795;28;20048;-71
2022/09/25 10:34:35;;;;;;;5.13;1.45;;;;;;;;;;5082412;28;20434;-74
2022/09/25 10:37:18;;;;;;;5.47;1.80;;;;;;;;;;5062284;28;20055;-71
2022/09/25 10:40:06;;;;;;;3.83;1.60;;;;;;;;;;5068857;28;20036;-75
2022/09/25 10:42:39;;;;;;;6.47;2.25;;;;;;;;;;5069791;28;20399;-71
2022/09/25 10:45:30;;;;;;;5.10;1.38;;;;;;;;;;5068749;28;20509;-74
2022/09/25 10:51:09;;;;;;;4.55;1.77;;;;;;;;;;5068869;28;20044;-75
2022/09/25 10:53:38;;;;;;;7.70;1.65;;;;;;;;;;5068592;28;20041;-73
2022/09/25 10:56:13;;;;;;;7.70;1.50;;;;;;;;;;5068801;28;20052;-77
2022/09/25 10:58:55;;;;;;;3.72;1.70;;;;;;;;;;5068570;28;20053;-75
2022/09/25 11:01:37;;;;;;;3.25;1.48;;;;;;;;;;5068142;28;20106;-73
2022/09/25 11:04:17;;;;;;;4.22;1.42;;;;;;;;;;5068485;28;20045;-74
2022/09/25 11:06:53;;;;;;;5.57;1.40;;;;;;;;;;5068164;28;20083;-74
2022/09/25 11:09:24;;;;;;;6.40;1.40;;;;;;;;;;5068598;28;20517;-75
2022/09/25 11:31:01;;;;;;;4.45;1.90;;;;;;;;;;5122709;27;21443;-72
2022/09/25 11:33:49;;;;;;;6.18;1.60;;;;;;;;;;5102825;28;20040;-72
2022/09/25 11:36:28;;;;;;;2.47;1.08;;;;;;;;;;5104565;28;20058;-72
2022/09/25 11:41:55;;;;;;;3.65;1.58;;;;;;;;;;5103999;28;20051;-72
2022/09/25 11:44:53;;;;;;;5.03;1.30;;;;;;;;;;5103941;28;20048;-73
2022/09/25 11:47:36;;;;;;;4.63;1.35;;;;;;;;;;5103733;28;20059;-73
2022/09/25 11:50:16;;;;;;;11.80;2.38;;;;;;;;;;5103866;28;20047;-73
2022/09/25 11:52:57;;;;;;;3.78;1.17;;;;;;;;;;5102714;28;20051;-72
2022/09/25 11:55:57;;;;;;;2.70;1.30;;;;;;;;;;5103587;28;20054;-73
2022/09/25 11:58:48;;;;;;;4.43;1.50;;;;;;;;;;5103279;28;20048;-72
2022/09/25 12:01:46;;;;;;;6.20;1.63;;;;;;;;;;5102870;28;20066;-73
2022/09/25 12:04:34;;;;;;;5.22;1.75;;;;;;;;;;5103469;28;20050;-72
2022/09/25 12:07:41;;;;;;;2.55;1.50;;;;;;;;;;5103003;28;20040;-73
2022/09/25 12:10:28;;;;;;;5.13;1.60;;;;;;;;;;5033010;28;20062;-73
2022/09/25 12:13:26;;;;;;;6.65;2.00;;;;;;;;;;5103081;28;20043;-73
2022/09/25 12:16:07;;;;;;;3.03;1.73;;;;;;;;;;5102823;28;20048;-73
2022/09/25 12:18:56;;;;;;;4.00;1.52;;;;;;;;;;5099879;28;20048;-73
2022/09/25 12:21:48;;;;;;;5.75;2.10;;;;;;;;;;5082562;28;20387;-73
2022/09/25 12:24:41;;;;;;;4.55;1.65;;;;;;;;;;5082108;28;20055;-74
2022/09/25 12:27:40;;;;;;;2.95;1.50;;;;;;;;;;5082515;28;20044;-74
2022/09/25 12:30:25;;;;;;;4.68;1.70;;;;;;;;;;5069348;28;20065;-72
2022/09/25 12:32:55;;;;;;;6.15;1.88;;;;;;;;;;5068837;28;20507;-74
2022/09/25 12:35:47;;;;;;;10.80;1.50;;;;;;;;;;5068834;28;20482;-74
2022/09/25 12:38:51;;;;;;;5.72;2.00;;;;;;;;;;5068779;28;20049;-73
2022/09/25 12:41:29;;;;;;;6.97;1.60;;;;;;;;;;5068285;28;20051;-73
2022/09/25 12:44:10;;;;;;;6.43;2.67;;;;;;;;;;5068501;28;20052;-74
2022/09/25 12:46:50;;;;;;;;;;;;;;;;;;5067840;28;20040;-74
2022/09/25 12:49:31;;;;;;;3.08;1.92;;;;;;;;;;5067907;28;19920;-75
2022/09/25 12:52:11;;;;;;;7.28;1.50;;;;;;;;;;5068465;28;20055;-74
2022/09/25 12:55:03;;;;;;;2.92;1.35;;;;;;;;;;5068601;28;20044;-74
2022/09/25 12:57:53;;;;;;;4.57;1.90;;;;;;;;;;5068925;28;20056;-76
2022/09/25 13:00:27;;;;;;;5.20;1.52;;;;;;;;;;5068360;28;20043;-73
2022/09/25 13:03:25;;;;;;;4.45;1.55;;;;;;;;;;5068214;28;20051;-73
2022/09/25 13:06:13;;;;;;;4.72;1.50;;;;;;;;;;5032393;28;20064;-73
2022/09/25 13:09:10;;;;;;;5.78;1.65;;;;;;;;;;5068303;28;20048;-74
2022/09/25 13:12:08;;;;;;;13.45;12.10;;;;;;;;;;5067732;28;20516;-73
2022/09/25 13:14:45;;;;;;;3.13;1.75;;;;;;;;;;5068339;28;20076;-73
2022/09/25 13:17:15;;;;;;;4.85;1.67;;;;;;;;;;5068836;28;20071;-73
2022/09/25 13:19:45;;;;;;;2.70;1.80;;;;;;;;;;5067791;28;20055;-71
2022/09/25 13:22:25;;;;;;;7.30;1.52;;;;;;;;;;5068316;28;20052;-73
2022/09/25 13:25:04;;;;;;;6.53;1.52;;;;;;;;;;5067787;28;20056;-70
2022/09/25 13:27:45;;;;;;;2.95;1.30;;;;;;;;;;5067695;28;20040;-72
2022/09/25 13:30:27;;;;;;;2.63;1.50;;;;;;;;;;5067332;28;20084;-72
2022/09/25 13:33:02;;;;;;;2.75;1.73;;;;;;;;;;5067299;28;20399;-72
2022/09/25 13:35:36;;;;;;;2.85;1.35;;;;;;;;;;5068410;28;20483;-74
2022/09/25 13:40:41;;;;;;;7.15;1.58;;;;;;;;;;5068155;28;20780;-71
2022/09/25 13:41:13;;;;;;;5.03;1.25;;;;;;;;;;5067348;28;20051;-75
2022/09/25 13:43:43;;;;;;;3.35;1.33;;;;;;;;;;5067087;28;20048;-76
2022/09/25 13:46:20;;;;;;;3.42;1.33;;;;;;;;;;5067311;28;20056;-74
2022/09/25 13:48:51;;;;;;;3.80;1.30;;;;;;;;;;5067302;28;20052;-74
2022/09/25 13:51:21;;;;;;;3.42;1.30;;;;;;;;;;5067977;28;20055;-74
2022/09/25 13:53:59;;;;;;;5.70;1.58;;;;;;;;;;5067407;28;20165;-74
2022/09/25 13:56:47;;;;;;;2.17;1.20;;;;;;;;;;5067087;28;20048;-72
2022/09/25 13:59:23;;;;;;;2.53;1.38;;;;;;;;;;5065675;28;20044;-74
2022/09/25 14:01:57;;;;;;;2.83;1.00;;;;;;;;;;5067094;28;20075;-73
2022/09/25 14:04:39;;;;;;;3.85;1.40;;;;;;;;;;5066854;28;20403;-72
2022/09/25 14:07:21;;;;;;;3.13;1.10;;;;;;;;;;5067090;28;20044;-71
2022/09/25 14:09:54;;;;;;;1.85;1.17;;;;;;;;;;5066871;28;20052;-72
2022/09/25 14:12:37;;;;;;;1.88;1.17;;;;;;;;;;5066921;28;20040;-75
2022/09/25 14:15:34;;;;;;;6.80;1.02;;;;;;;;;;5067455;28;20040;-74
2022/09/25 14:18:09;;;;;;;2.85;0.93;;;;;;;;;;5065864;28;20052;-74
2022/09/25 14:20:45;;;;;;;2.53;1.00;;;;;;;;;;5066330;28;20526;-73
2022/09/25 14:23:32;;;;;;;1.25;0.90;;;;;;;;;;5064767;28;20519;-78
2022/09/25 14:26:17;;;;;;;2.50;1.02;;;;;;;;;;5067575;28;20045;-72
2022/09/25 14:28:49;;;;;;;1.95;1.13;;;;;;;;;;5066635;28;20079;-75
2022/09/25 14:31:39;;;;;;;3.25;0.82;;;;;;;;;;5066280;28;20056;-72
2022/09/25 14:34:11;;;;;;;1.10;1.00;;;;;;;;;;5066285;28;20533;-77
2022/09/25 14:37:00;;;;;;;4.00;1.00;;;;;;;;;;5065203;28;20514;-76
2022/09/25 14:39:42;;;;;;;2.95;1.02;;;;;;;;;;5065229;28;20059;-73
2022/09/25 14:42:27;;;;;;;2.15;1.00;;;;;;;;;;5068298;28;20059;-74
2022/09/25 14:45:16;;;;;;;2.33;1.00;;;;;;;;;;5068947;28;20052;-74
2022/09/25 14:47:48;;;;;;;1.98;1.00;;;;;;;;;;5067868;28;20064;-74
2022/09/25 14:50:22;;;;;;;1.95;1.02;;;;;;;;;;5064488;28;20056;-75
2022/09/25 14:52:57;;;;;;;3.47;2.33;;;;;;;;;;5066194;28;20059;-73
2022/09/25 14:55:40;;;;;;;2.10;1.20;;;;;;;;;;5063693;28;20044;-73
2022/09/25 14:58:15;;;;;;;5.50;1.20;;;;;;;;;;5062286;28;20052;-73
2022/09/25 15:00:48;;;;;;;1.48;0.73;;;;;;;;;;5064914;28;20048;-74
2022/09/25 15:03:23;;;;;;;4.07;2.47;;;;;;;;;;5066053;28;20041;-75
2022/09/25 15:05:55;;;;;;;5.30;1.52;;;;;;;;;;5065729;28;20051;-74
2022/09/25 15:08:51;;;;;;;43.53;23.35;;;;;;;;;;5059804;28;20044;-76
2022/09/25 15:11:26;;;;;;;12.88;6.75;;;;;;;;;;5043688;28;20640;-73
2022/09/25 15:14:10;;;;;;;12.85;7.03;;;;;;;;;;5042320;28;20044;-74
2022/09/25 15:19:38;;;;;;;10.10;4.28;;;;;;;;;;5044056;28;20056;-74
2022/09/25 15:22:18;;;;;;;2.63;1.20;;;;;;;;;;5044001;28;20060;-72
2022/09/25 15:24:59;;;;;;;2.95;1.80;;;;;;;;;;5043664;28;20041;-73
2022/09/25 15:27:30;;;;;;;7.28;4.25;;;;;;;;;;5045131;28;20048;-71
2022/09/25 15:30:01;;;;;;;6.50;2.42;;;;;;;;;;5045823;28;20503;-71
2022/09/25 15:32:38;;;;;;;1.65;1.13;;;;;;;;;;5045800;28;20037;-72
2022/09/25 15:35:16;;;;;;;2.40;1.00;;;;;;;;;;5045321;28;20048;-72
2022/09/25 15:37:47;;;;;;;2.88;1.00;;;;;;;;;;5045640;28;20041;-73
2022/09/25 15:40:26;;;;;;;5.13;1.77;;;;;;;;;;5046234;28;20037;-74
2022/09/25 15:43:00;;;;;;;3.13;1.33;;;;;;;;;;5044187;28;20538;-75
2022/09/25 15:46:00;;;;;;;5.30;1.52;;;;;;;;;;5046040;28;20047;-73
2022/09/25 15:48:32;;;;;;;3.00;1.42;;;;;;;;;;5045787;28;20064;-73
2022/09/25 15:51:15;;;;;;;1.45;0.80;;;;;;;;;;5044084;28;20116;-74
2022/09/25 15:53:59;;;;;;;4.90;1.10;;;;;;;;;;5045567;28;20800;-74
2022/09/25 15:56:54;;;;;;;3.67;1.40;;;;;;;;;;5045346;28;20412;-72
2022/09/25 15:59:26;;;;;;;1.67;0.77;;;;;;;;;;5044341;28;20040;-73
2022/09/25 16:04:50;;;;;;;4.80;1.00;;;;;;;;;;5044734;28;20088;-72
2022/09/25 16:07:35;;;;;;;2.22;1.08;;;;;;;;;;5048183;28;20059;-73
2022/09/25 16:10:11;;;;;;;4.78;1.27;;;;;;;;;;5044730;28;20057;-71
2022/09/25 16:12:41;;;;;;;2.85;1.17;;;;;;;;;;5048725;28;20044;-74
2022/09/25 16:15:41;;;;;;;3.42;1.10;;;;;;;;;;5047998;28;20052;-75
2022/09/25 16:18:26;;;;;;;3.88;0.93;;;;;;;;;;5047902;28;20048;-73
2022/09/25 16:21:07;;;;;;;1.90;0.98;;;;;;;;;;5049409;28;20044;-74
2022/09/25 16:23:39;;;;;;;4.18;1.02;;;;;;;;;;5049085;28;20060;-74
2022/09/25 16:26:22;;;;;;;3.67;1.20;;;;;;;;;;5047830;28;20048;-70
2022/09/25 16:29:13;;;;;;;2.13;1.08;;;;;;;;;;5048749;28;20052;-72
2022/09/25 16:31:45;;;;;;;2.53;1.33;;;;;;;;;;5048654;28;20419;-73
2022/09/25 16:34:25;;;;;;;5.28;1.50;;;;;;;;;;5048950;28;20044;-71
2022/09/25 16:36:59;;;;;;;4.75;1.30;;;;;;;;;;5048706;28;20049;-71